createdAt,value
2018-06-23T00:01:17.419Z,4.43
2018-06-23T00:03:46.415Z,3.00
2018-06-23T00:06:15.262Z,3.67
2018-06-23T00:08:43.827Z,3.50
2018-06-23T00:11:12.323Z,3.87
2018-06-23T00:13:41.564Z,4.67
2018-06-23T00:16:10.173Z,4.90
2018-06-23T00:18:38.738Z,4.53
2018-06-23T00:21:07.257Z,4.97
2018-06-23T00:23:36.012Z,5.30
2018-06-23T00:26:09.911Z,4.73
2018-06-23T00:28:38.790Z,4.70
2018-06-23T00:31:08.314Z,5.10
2018-06-23T00:33:37.003Z,5.27
2018-06-23T00:36:05.813Z,4.40
2018-06-23T00:38:34.419Z,4.47
2018-06-23T00:41:02.987Z,3.90
2018-06-23T00:43:31.487Z,3.80
2018-06-23T00:46:00.387Z,3.93
2018-06-23T00:48:28.967Z,4.00
2018-06-23T00:50:57.524Z,3.70
2018-06-23T00:53:26.232Z,4.60
2018-06-23T00:55:54.803Z,3.70
2018-06-23T00:58:23.564Z,3.33
2018-06-23T01:00:52.061Z,3.27
2018-06-23T01:03:20.623Z,4.00
2018-06-23T01:05:49.108Z,3.43
2018-06-23T01:08:17.635Z,3.00
2018-06-23T01:10:46.305Z,3.30
2018-06-23T01:13:14.860Z,3.57
2018-06-23T01:15:43.472Z,3.60
2018-06-23T01:18:12.008Z,3.50
2018-06-23T01:20:40.539Z,4.07
2018-06-23T01:23:09.175Z,3.63
2018-06-23T01:25:37.682Z,3.47
2018-06-23T01:28:06.286Z,3.70
2018-06-23T01:30:34.795Z,3.13
2018-06-23T01:33:03.356Z,3.10
2018-06-23T01:35:31.940Z,3.50
2018-06-23T01:38:00.522Z,3.50
2018-06-23T01:40:29.022Z,3.80
2018-06-23T01:42:57.617Z,3.43
2018-06-23T01:45:26.110Z,3.33
2018-06-23T01:47:54.623Z,3.40
2018-06-23T01:50:23.089Z,3.40
2018-06-23T01:52:51.620Z,3.60
2018-06-23T01:55:20.153Z,4.07
2018-06-23T01:57:48.710Z,3.57
2018-06-23T02:00:17.288Z,3.80
2018-06-23T02:02:45.822Z,4.03
2018-06-23T02:05:14.343Z,3.77
2018-06-23T02:07:42.883Z,3.57
2018-06-23T02:10:11.453Z,3.00
2018-06-23T02:12:40.057Z,3.43
2018-06-23T02:15:10.635Z,3.40
2018-06-23T02:17:45.044Z,3.17
2018-06-23T02:22:26.580Z,3.53
2018-06-23T02:25:00.298Z,2.80
2018-06-23T02:27:34.160Z,2.93
2018-06-23T02:30:07.995Z,3.53
2018-06-23T02:32:41.819Z,2.53
2018-06-23T02:35:10.325Z,2.90
2018-06-23T02:37:39.898Z,2.70
2018-06-23T02:40:08.991Z,3.03
2018-06-23T02:42:37.637Z,2.90
2018-06-23T02:45:07.200Z,3.20
2018-06-23T02:47:36.169Z,2.70
2018-06-23T02:50:04.812Z,2.67
2018-06-23T02:52:33.459Z,2.70
2018-06-23T02:55:02.201Z,2.30
2018-06-23T02:57:31.055Z,2.57
2018-06-23T02:59:59.611Z,2.87
2018-06-23T03:02:28.553Z,2.80
2018-06-23T03:04:57.337Z,2.60
2018-06-23T03:07:25.835Z,2.50
2018-06-23T03:09:54.316Z,2.80
2018-06-23T03:12:22.829Z,2.60
2018-06-23T03:14:51.440Z,3.17
2018-06-23T03:17:20.167Z,3.30
2018-06-23T03:19:51.193Z,3.30
2018-06-23T03:22:20.002Z,3.10
2018-06-23T03:24:48.594Z,3.60
2018-06-23T03:27:17.153Z,2.83
2018-06-23T03:29:45.720Z,3.20
2018-06-23T03:32:14.290Z,2.87
2018-06-23T03:34:42.923Z,3.10
2018-06-23T03:37:11.539Z,2.77
2018-06-23T03:39:40.058Z,2.90
2018-06-23T03:42:08.778Z,3.10
2018-06-23T03:44:37.309Z,3.30
2018-06-23T03:47:05.943Z,3.20
2018-06-23T03:49:34.511Z,3.40
2018-06-23T03:52:03.348Z,3.37
2018-06-23T03:54:32.192Z,3.00
2018-06-23T03:57:00.795Z,2.77
2018-06-23T03:59:29.346Z,3.47
2018-06-23T04:01:58.427Z,2.93
2018-06-23T04:04:27.053Z,2.90
2018-06-23T04:06:55.547Z,2.70
2018-06-23T04:09:24.090Z,3.00
2018-06-23T04:11:52.665Z,2.97
2018-06-23T04:14:20.833Z,3.20
2018-06-23T04:16:49.422Z,2.50
2018-06-23T04:19:17.953Z,2.40
2018-06-23T04:21:46.436Z,2.70
2018-06-23T04:24:15.812Z,3.03
2018-06-23T04:26:44.508Z,2.87
2018-06-23T04:29:13.117Z,3.20
2018-06-23T04:31:41.787Z,3.23
2018-06-23T04:34:10.345Z,2.80
2018-06-23T04:36:38.958Z,3.30
2018-06-23T04:39:08.283Z,3.10
2018-06-23T04:41:37.518Z,2.63
2018-06-23T04:44:06.275Z,3.07
2018-06-23T04:46:34.891Z,2.90
2018-06-23T04:49:03.690Z,3.00
2018-06-23T04:51:32.240Z,2.93
2018-06-23T04:54:00.639Z,2.97
2018-06-23T04:56:29.379Z,3.27
2018-06-23T04:58:58.337Z,2.93
2018-06-23T05:01:27.315Z,3.47
2018-06-23T05:03:55.979Z,3.40
2018-06-23T05:06:24.199Z,3.33
2018-06-23T05:08:52.758Z,2.83
2018-06-23T05:11:21.323Z,3.50
2018-06-23T05:13:50.107Z,3.70
2018-06-23T05:16:18.592Z,4.00
2018-06-23T05:18:47.162Z,3.40
2018-06-23T05:21:15.859Z,3.17
2018-06-23T05:23:44.161Z,3.07
2018-06-23T05:26:13.478Z,3.27
2018-06-23T05:28:42.254Z,3.50
2018-06-23T05:31:11.284Z,3.10
2018-06-23T05:33:39.976Z,3.20
2018-06-23T05:36:08.599Z,3.07
2018-06-23T05:38:37.716Z,2.93
2018-06-23T05:41:06.605Z,3.23
2018-06-23T05:43:34.866Z,3.50
2018-06-23T05:46:04.245Z,3.27
2018-06-23T05:48:33.190Z,2.80
2018-06-23T05:51:02.591Z,3.70
2018-06-23T05:53:31.616Z,3.60
2018-06-23T05:56:00.179Z,3.07
2018-06-23T05:58:29.502Z,3.57
2018-06-23T06:00:59.488Z,3.50
2018-06-23T06:03:29.215Z,3.00
2018-06-23T06:05:58.058Z,3.27
2018-06-23T06:08:28.215Z,3.03
2018-06-23T06:10:57.197Z,3.20
2018-06-23T06:13:25.965Z,3.10
2018-06-23T06:15:55.008Z,3.00
2018-06-23T06:18:23.831Z,3.23
2018-06-23T06:20:53.454Z,3.80
2018-06-23T06:23:22.127Z,3.67
2018-06-23T06:25:51.366Z,3.00
2018-06-23T06:28:21.494Z,2.83
2018-06-23T06:30:50.683Z,3.23
2018-06-23T06:33:20.476Z,3.57
2018-06-23T06:35:49.574Z,3.00
2018-06-23T06:38:18.352Z,3.53
2018-06-23T06:40:46.972Z,3.00
2018-06-23T06:43:15.923Z,2.93
2018-06-23T06:45:45.469Z,3.43
2018-06-23T06:48:14.974Z,2.90
2018-06-23T06:50:43.742Z,3.13
2018-06-23T06:53:13.166Z,3.43
2018-06-23T06:55:41.935Z,3.23
2018-06-23T06:58:11.814Z,3.37
2018-06-23T07:00:40.641Z,3.30
2018-06-23T07:03:10.164Z,3.53
2018-06-23T07:05:39.263Z,3.57
2018-06-23T07:08:07.807Z,3.53
2018-06-23T07:10:36.937Z,3.27
2018-06-23T07:13:05.440Z,4.03
2018-06-23T07:15:34.292Z,3.60
2018-06-23T07:18:02.907Z,3.40
2018-06-23T07:20:31.531Z,3.20
2018-06-23T07:23:00.428Z,3.60
2018-06-23T07:25:29.517Z,3.60
2018-06-23T07:27:58.563Z,3.77
2018-06-23T07:30:27.468Z,3.60
2018-06-23T07:32:56.679Z,3.30
2018-06-23T07:35:25.421Z,3.47
2018-06-23T07:37:54.055Z,3.47
2018-06-23T07:40:22.898Z,3.60
2018-06-23T07:42:51.468Z,3.20
2018-06-23T07:45:20.303Z,3.07
2018-06-23T07:47:49.101Z,3.60
2018-06-23T07:50:17.839Z,3.67
2018-06-23T07:52:46.616Z,3.37
2018-06-23T07:55:15.175Z,4.57
2018-06-23T07:57:44.107Z,4.10
2018-06-23T08:00:12.990Z,3.40
2018-06-23T08:02:42.288Z,3.93
2018-06-23T08:05:10.913Z,4.60
2018-06-23T08:07:40.574Z,4.17
2018-06-23T08:10:09.330Z,4.17
2018-06-23T08:12:38.575Z,4.87
2018-06-23T08:15:07.250Z,4.40
2018-06-23T08:17:35.779Z,3.93
2018-06-23T08:20:04.473Z,4.17
2018-06-23T08:22:33.942Z,3.87
2018-06-23T08:25:02.714Z,4.13
2018-06-23T08:27:31.451Z,3.57
2018-06-23T08:30:01.045Z,3.50
2018-06-23T08:32:30.733Z,3.93
2018-06-23T08:34:59.899Z,3.33
2018-06-23T08:37:29.374Z,3.83
2018-06-23T08:39:58.310Z,3.57
2018-06-23T08:42:27.003Z,4.23
2018-06-23T08:44:56.450Z,3.53
2018-06-23T08:47:25.795Z,3.37
2018-06-23T08:49:54.339Z,3.10
2018-06-23T08:52:23.204Z,3.90
2018-06-23T08:54:51.935Z,2.70
2018-06-23T08:57:20.507Z,3.37
2018-06-23T08:59:49.078Z,3.30
2018-06-23T09:02:17.897Z,3.20
2018-06-23T09:04:46.538Z,3.57
2018-06-23T09:07:15.323Z,3.40
2018-06-23T09:09:45.253Z,3.13
2018-06-23T09:12:13.860Z,3.47
2018-06-23T09:14:43.244Z,3.43
2018-06-23T09:17:12.446Z,3.03
2018-06-23T09:19:41.223Z,3.10
2018-06-23T09:22:10.228Z,2.80
2018-06-23T09:24:38.776Z,2.53
2018-06-23T09:27:07.551Z,2.47
2018-06-23T09:29:37.311Z,2.70
2018-06-23T09:32:06.143Z,3.43
2018-06-23T09:34:35.038Z,3.20
2018-06-23T09:37:04.932Z,3.83
2018-06-23T09:39:33.811Z,3.37
2018-06-23T09:42:02.531Z,2.83
2018-06-23T09:44:31.235Z,3.37
2018-06-23T09:46:59.819Z,3.13
2018-06-23T09:49:28.607Z,2.87
2018-06-23T09:51:57.130Z,3.03
2018-06-23T09:54:25.691Z,2.80
2018-06-23T09:56:54.243Z,3.20
2018-06-23T09:59:22.827Z,2.53
2018-06-23T10:01:51.361Z,3.03
2018-06-23T10:04:19.921Z,3.13
2018-06-23T10:06:48.832Z,3.07
2018-06-23T10:09:17.508Z,2.77
2018-06-23T10:11:46.092Z,2.70
2018-06-23T10:14:14.639Z,2.60
2018-06-23T10:16:43.315Z,3.13
2018-06-23T10:19:12.081Z,2.90
2018-06-23T10:21:40.815Z,3.10
2018-06-23T10:24:09.690Z,3.07
2018-06-23T10:26:37.924Z,2.83
2018-06-23T10:29:06.473Z,2.93
2018-06-23T10:31:35.035Z,3.07
2018-06-23T10:34:04.536Z,3.93
2018-06-23T10:36:34.220Z,3.20
2018-06-23T10:39:02.817Z,2.90
2018-06-23T10:41:31.416Z,3.03
2018-06-23T10:43:59.652Z,2.90
2018-06-23T10:46:28.350Z,3.13
2018-06-23T10:48:57.806Z,2.80
2018-06-23T10:51:27.110Z,2.77
2018-06-23T10:53:56.317Z,3.27
2018-06-23T10:56:25.286Z,2.47
2018-06-23T10:58:54.318Z,2.90
2018-06-23T11:01:23.475Z,2.80
2018-06-23T11:03:52.195Z,3.00
2018-06-23T11:06:21.041Z,2.83
2018-06-23T11:08:49.635Z,2.43
2018-06-23T11:11:18.121Z,3.07
2018-06-23T11:13:47.560Z,2.90
2018-06-23T11:16:17.271Z,2.90
2018-06-23T11:18:45.973Z,3.30
2018-06-23T11:21:15.260Z,3.03
2018-06-23T11:23:43.837Z,3.23
2018-06-23T11:26:12.411Z,2.80
2018-06-23T11:28:41.075Z,2.93
2018-06-23T11:31:09.827Z,3.20
2018-06-23T11:33:38.560Z,3.00
2018-06-23T11:36:07.935Z,2.60
2018-06-23T11:38:36.808Z,2.40
2018-06-23T11:41:05.768Z,2.83
2018-06-23T11:43:34.284Z,2.90
2018-06-23T11:46:02.876Z,2.43
2018-06-23T11:48:31.457Z,3.00
2018-06-23T11:51:00.389Z,3.27
2018-06-23T11:53:29.178Z,2.90
2018-06-23T11:55:58.050Z,3.70
2018-06-23T11:58:26.638Z,2.83
2018-06-23T12:00:55.395Z,3.20
2018-06-23T12:03:23.991Z,3.27
2018-06-23T12:05:52.611Z,3.07
2018-06-23T12:08:21.192Z,3.17
2018-06-23T12:10:50.076Z,3.43
2018-06-23T12:13:19.588Z,3.33
2018-06-23T12:15:48.439Z,3.40
2018-06-23T12:18:17.986Z,3.33
2018-06-23T12:20:46.943Z,3.37
2018-06-23T12:23:15.573Z,3.67
2018-06-23T12:25:44.385Z,3.10
2018-06-23T12:28:12.883Z,3.53
2018-06-23T12:30:41.756Z,2.87
2018-06-23T12:33:10.736Z,3.00
2018-06-23T12:35:39.353Z,3.60
2018-06-23T12:38:08.186Z,3.17
2018-06-23T12:40:37.130Z,2.90
2018-06-23T12:43:06.027Z,4.20
2018-06-23T12:45:34.684Z,2.63
2018-06-23T12:48:03.354Z,3.20
2018-06-23T12:50:32.270Z,2.97
2018-06-23T12:53:01.483Z,2.67
2018-06-23T12:55:30.050Z,2.87
2018-06-23T12:57:59.319Z,2.87
2018-06-23T13:00:27.958Z,2.80
2018-06-23T13:02:56.249Z,2.47
2018-06-23T13:05:25.591Z,3.00
2018-06-23T13:07:54.941Z,3.00
2018-06-23T13:10:23.187Z,3.13
2018-06-23T13:12:52.604Z,3.10
2018-06-23T13:15:21.537Z,2.73
2018-06-23T13:17:50.312Z,3.23
2018-06-23T13:20:18.751Z,3.30
2018-06-23T13:22:47.319Z,3.23
2018-06-23T13:25:16.630Z,2.53
2018-06-23T13:27:45.212Z,2.47
2018-06-23T13:30:13.953Z,3.07
2018-06-23T13:32:42.946Z,2.87
2018-06-23T13:35:11.476Z,2.70
2018-06-23T13:37:40.155Z,2.73
2018-06-23T13:40:08.854Z,3.00
2018-06-23T13:42:38.298Z,3.00
2018-06-23T13:45:06.899Z,2.57
2018-06-23T13:47:37.057Z,3.33
2018-06-23T13:50:05.956Z,3.10
2018-06-23T13:52:35.082Z,3.17
2018-06-23T13:55:03.827Z,3.27
2018-06-23T13:57:33.299Z,2.73
2018-06-23T14:00:01.880Z,2.83
2018-06-23T14:02:30.803Z,3.43
2018-06-23T14:04:59.363Z,2.50
2018-06-23T14:07:27.889Z,3.27
2018-06-23T14:09:56.550Z,3.17
2018-06-23T14:12:25.121Z,3.20
2018-06-23T14:14:53.793Z,3.13
2018-06-23T14:17:22.621Z,2.93
2018-06-23T14:19:51.507Z,2.97
2018-06-23T14:22:20.355Z,3.37
2018-06-23T14:24:50.514Z,3.60
2018-06-23T14:27:19.035Z,3.63
2018-06-23T14:29:47.594Z,3.57
2018-06-23T14:32:16.438Z,3.57
2018-06-23T14:34:45.090Z,4.07
2018-06-23T14:37:14.146Z,4.10
2018-06-23T14:39:43.591Z,4.00
2018-06-23T14:42:12.255Z,3.73
2018-06-23T14:44:41.137Z,3.57
2018-06-23T14:47:11.164Z,4.10
2018-06-23T14:49:39.983Z,3.47
2018-06-23T14:52:08.722Z,4.53
2018-06-23T14:54:37.748Z,3.50
2018-06-23T14:57:06.624Z,4.27
2018-06-23T14:59:35.352Z,3.70
2018-06-23T15:02:04.286Z,4.10
2018-06-23T15:04:33.359Z,4.00
2018-06-23T15:07:02.251Z,3.37
2018-06-23T15:09:41.863Z,3.33
2018-06-23T15:12:21.609Z,3.83
2018-06-23T15:14:50.178Z,4.30
2018-06-23T15:17:19.780Z,3.80
2018-06-23T15:19:49.324Z,3.33
2018-06-23T15:22:18.251Z,3.73
2018-06-23T15:24:46.924Z,3.90
2018-06-23T15:27:16.205Z,3.57
2018-06-23T15:29:45.119Z,3.10
2018-06-23T15:32:13.684Z,3.60
2018-06-23T15:34:42.315Z,3.40
2018-06-23T15:37:10.964Z,3.00
2018-06-23T15:39:39.540Z,3.00
2018-06-23T15:42:08.067Z,3.17
2018-06-23T15:44:36.636Z,3.60
2018-06-23T15:47:05.641Z,3.47
2018-06-23T15:49:34.283Z,3.40
2018-06-23T15:52:03.047Z,3.37
2018-06-23T15:54:31.696Z,3.90
2018-06-23T15:57:00.215Z,3.40
2018-06-23T15:59:28.796Z,3.60
2018-06-23T16:01:57.678Z,3.30
2018-06-23T16:04:26.629Z,3.60
2018-06-23T16:06:55.151Z,3.13
2018-06-23T16:09:24.031Z,3.33
2018-06-23T16:11:52.586Z,3.50
2018-06-23T16:14:21.372Z,3.97
2018-06-23T16:16:49.956Z,3.43
2018-06-23T16:19:18.821Z,3.43
2018-06-23T16:21:46.984Z,4.20
2018-06-23T16:24:16.130Z,3.40
2018-06-23T16:26:44.768Z,3.83
2018-06-23T16:29:13.597Z,3.53
2018-06-23T16:31:42.159Z,3.13
2018-06-23T16:34:10.751Z,3.23
2018-06-23T16:36:39.359Z,3.47
2018-06-23T16:39:09.983Z,3.60
2018-06-23T16:41:38.660Z,3.20
2018-06-23T16:44:08.206Z,3.33
2018-06-23T16:46:37.131Z,3.10
2018-06-23T16:49:06.108Z,3.67
2018-06-23T16:51:34.314Z,3.23
2018-06-23T16:54:02.910Z,3.00
2018-06-23T16:56:31.526Z,3.83
2018-06-23T16:59:00.285Z,3.63
2018-06-23T17:01:28.939Z,3.33
2018-06-23T17:03:58.266Z,2.97
2018-06-23T17:06:27.268Z,3.43
2018-06-23T17:08:56.198Z,2.80
2018-06-23T17:11:25.390Z,3.60
2018-06-23T17:13:54.031Z,3.77
2018-06-23T17:16:23.138Z,3.10
2018-06-23T17:18:51.876Z,3.40
2018-06-23T17:21:20.699Z,3.40
2018-06-23T17:23:49.444Z,2.90
2018-06-23T17:26:19.006Z,3.57
2018-06-23T17:28:47.599Z,3.17
2018-06-23T17:31:16.891Z,3.60
2018-06-23T17:33:46.308Z,3.30
2018-06-23T17:36:15.301Z,3.57
2018-06-23T17:38:44.054Z,3.80
2018-06-23T17:41:26.948Z,3.60
2018-06-23T17:43:55.600Z,3.63
2018-06-23T17:46:24.690Z,3.47
2018-06-23T17:48:53.287Z,3.20
2018-06-23T17:51:21.807Z,3.50
2018-06-23T17:53:50.387Z,3.73
2018-06-23T17:56:18.631Z,3.80
2018-06-23T17:58:47.497Z,3.53
2018-06-23T18:01:16.954Z,3.47
2018-06-23T18:03:46.263Z,3.73
2018-06-23T18:06:14.814Z,3.47
2018-06-23T18:08:43.903Z,3.73
2018-06-23T18:11:12.770Z,3.80
2018-06-23T18:13:41.266Z,3.33
2018-06-23T18:16:10.530Z,3.20
2018-06-23T18:18:39.112Z,3.27
2018-06-23T18:21:08.358Z,3.60
2018-06-23T18:23:37.199Z,3.87
2018-06-23T18:26:06.126Z,3.50
2018-06-23T18:28:35.209Z,3.30
2018-06-23T18:31:04.086Z,3.63
2018-06-23T18:33:32.701Z,3.40
2018-06-23T18:36:01.657Z,3.40
2018-06-23T18:38:30.244Z,3.17
2018-06-23T18:40:58.871Z,3.67
2018-06-23T18:43:27.807Z,3.47
2018-06-23T18:45:56.043Z,3.47
2018-06-23T18:48:24.902Z,3.70
2018-06-23T18:50:54.375Z,3.90
2018-06-23T18:53:23.181Z,4.00
2018-06-23T18:55:51.800Z,3.83
2018-06-23T18:58:20.751Z,4.10
2018-06-23T19:00:49.386Z,3.80
2018-06-23T19:03:18.025Z,3.90
2018-06-23T19:05:46.637Z,4.10
2018-06-23T19:08:15.684Z,4.23
2018-06-23T19:10:44.379Z,4.60
2018-06-23T19:13:13.063Z,3.67
2018-06-23T19:15:41.912Z,3.87
2018-06-23T19:18:10.555Z,4.30
2018-06-23T19:20:39.264Z,4.20
2018-06-23T19:23:08.043Z,4.23
2018-06-23T19:25:36.923Z,3.80
2018-06-23T19:28:06.340Z,3.80
2018-06-23T19:30:35.326Z,3.90
2018-06-23T19:33:03.895Z,4.17
2018-06-23T19:35:32.887Z,3.97
2018-06-23T19:38:01.400Z,4.07
2018-06-23T19:40:30.400Z,4.07
2018-06-23T19:42:59.065Z,4.10
2018-06-23T19:45:28.740Z,4.00
2018-06-23T19:47:57.287Z,3.60
2018-06-23T19:50:25.989Z,4.40
2018-06-23T19:52:54.532Z,4.07
2018-06-23T19:55:23.252Z,3.90
2018-06-23T19:57:51.794Z,3.80
2018-06-23T20:00:20.795Z,3.40
2018-06-23T20:02:49.354Z,3.53
2018-06-23T20:05:18.000Z,4.43
2018-06-23T20:07:46.560Z,3.57
2018-06-23T20:10:15.383Z,3.60
2018-06-23T20:12:43.977Z,3.20
2018-06-23T20:15:12.570Z,3.27
2018-06-23T20:17:41.513Z,3.73
2018-06-23T20:20:10.100Z,4.07
2018-06-23T20:22:38.686Z,3.97
2018-06-23T20:25:07.288Z,3.30
2018-06-23T20:27:36.327Z,3.43
2018-06-23T20:30:04.978Z,3.93
2018-06-23T20:32:33.536Z,4.33
2018-06-23T20:35:02.980Z,5.37
2018-06-23T20:37:31.589Z,4.50
2018-06-23T20:40:00.123Z,3.43
2018-06-23T20:42:29.074Z,3.50
2018-06-23T20:44:57.607Z,3.37
2018-06-23T20:47:26.309Z,3.13
2018-06-23T20:49:54.966Z,3.70
2018-06-23T20:52:23.499Z,3.37
2018-06-23T20:54:52.043Z,3.33
2018-06-23T20:57:20.872Z,3.43
2018-06-23T20:59:49.430Z,3.10
2018-06-23T21:02:18.287Z,2.93
2018-06-23T21:04:46.915Z,3.00
2018-06-23T21:07:15.365Z,2.93
2018-06-23T21:09:44.046Z,2.90
2018-06-23T21:12:12.639Z,3.00
2018-06-23T21:14:41.496Z,3.13
2018-06-23T21:17:10.140Z,3.27
2018-06-23T21:19:39.063Z,2.80
2018-06-23T21:22:07.702Z,3.13
2018-06-23T21:24:36.886Z,3.10
2018-06-23T21:27:05.562Z,3.00
2018-06-23T21:29:34.214Z,2.30
2018-06-23T21:32:02.867Z,2.80
2018-06-23T21:34:31.586Z,2.83
2018-06-23T21:37:00.157Z,2.77
2018-06-23T21:39:28.894Z,2.97
2018-06-23T21:41:57.418Z,3.00
2018-06-23T21:44:25.966Z,2.70
2018-06-23T21:46:54.538Z,3.07
2018-06-23T21:49:23.110Z,2.90
2018-06-23T21:51:51.755Z,3.43
2018-06-23T21:54:20.402Z,2.90
2018-06-23T21:56:48.963Z,3.07
2018-06-23T21:59:17.479Z,3.10
2018-06-23T22:01:46.380Z,3.00
2018-06-23T22:04:15.140Z,3.00
2018-06-23T22:06:43.697Z,4.00
2018-06-23T22:09:12.499Z,4.40
2018-06-23T22:11:41.080Z,3.97
2018-06-23T22:14:09.743Z,4.00
2018-06-23T22:16:38.275Z,4.07
2018-06-23T22:19:06.866Z,4.30
2018-06-23T22:21:35.656Z,4.50
2018-06-23T22:24:04.308Z,3.87
2018-06-23T22:26:32.887Z,3.87
2018-06-23T22:29:01.681Z,4.27
2018-06-23T22:31:30.284Z,4.10
2018-06-23T22:33:58.883Z,4.13
2018-06-23T22:36:27.899Z,4.20
2018-06-23T22:38:56.876Z,4.03
2018-06-23T22:41:25.719Z,4.03
2018-06-23T22:43:54.409Z,3.60
2018-06-23T22:46:23.000Z,3.80
2018-06-23T22:48:52.730Z,3.93
2018-06-23T22:51:21.867Z,3.37
2018-06-23T22:53:50.427Z,3.43
2018-06-23T22:56:19.813Z,4.33
2018-06-23T22:58:49.032Z,4.70
2018-06-23T23:01:17.561Z,3.70
2018-06-23T23:03:46.081Z,4.03
2018-06-23T23:06:15.150Z,4.40
2018-06-23T23:08:44.036Z,4.30
2018-06-23T23:11:12.795Z,4.73
2018-06-23T23:13:41.337Z,4.00
2018-06-23T23:16:09.938Z,4.73
2018-06-23T23:18:39.531Z,4.47
2018-06-23T23:21:08.167Z,4.80
2018-06-23T23:23:36.752Z,5.00
2018-06-23T23:26:06.066Z,3.80
2018-06-23T23:28:34.897Z,4.30
2018-06-23T23:31:03.596Z,4.10
2018-06-23T23:33:32.415Z,4.27
2018-06-23T23:36:01.293Z,4.10
2018-06-23T23:38:29.873Z,4.40
2018-06-23T23:40:58.435Z,4.40
2018-06-23T23:43:27.098Z,3.90
2018-06-23T23:45:55.781Z,4.10
2018-06-23T23:48:24.724Z,3.83
2018-06-23T23:50:53.303Z,4.37
2018-06-23T23:53:21.960Z,4.43
2018-06-23T23:55:50.751Z,4.40
2018-06-23T23:58:19.316Z,3.70
